sensor_id;sensor_type;location;lat;lon;timestamp;P1;durP1;ratioP1;P2;durP2;ratioP2
49296;SDS011;35163;48.878;18.040;2023-04-24T00:01:09;9.30;;;4.63;;
49296;SDS011;35163;48.878;18.040;2023-04-24T00:03:36;9.05;;;3.70;;
49296;SDS011;35163;48.878;18.040;2023-04-24T00:06:03;8.45;;;4.00;;
49296;SDS011;35163;48.878;18.040;2023-04-24T00:08:31;7.53;;;4.10;;
49296;SDS011;35163;48.878;18.040;2023-04-24T00:10:58;6.60;;;3.60;;
49296;SDS011;35163;48.878;18.040;2023-04-24T00:13:24;16.42;;;4.75;;
49296;SDS011;35163;48.878;18.040;2023-04-24T00:15:51;8.93;;;3.70;;
49296;SDS011;35163;48.878;18.040;2023-04-24T00:18:18;8.45;;;4.15;;
49296;SDS011;35163;48.878;18.040;2023-04-24T00:20:45;10.50;;;4.03;;
49296;SDS011;35163;48.878;18.040;2023-04-24T00:23:12;8.68;;;4.00;;
49296;SDS011;35163;48.878;18.040;2023-04-24T00:25:39;8.50;;;3.85;;
49296;SDS011;35163;48.878;18.040;2023-04-24T00:28:06;8.98;;;3.83;;
49296;SDS011;35163;48.878;18.040;2023-04-24T00:30:33;11.27;;;5.20;;
49296;SDS011;35163;48.878;18.040;2023-04-24T00:32:59;10.10;;;3.90;;
49296;SDS011;35163;48.878;18.040;2023-04-24T00:35:26;7.47;;;3.30;;
49296;SDS011;35163;48.878;18.040;2023-04-24T00:37:53;8.13;;;4.03;;
49296;SDS011;35163;48.878;18.040;2023-04-24T00:40:19;10.90;;;3.20;;
49296;SDS011;35163;48.878;18.040;2023-04-24T00:42:46;7.10;;;3.65;;
49296;SDS011;35163;48.878;18.040;2023-04-24T00:45:13;6.95;;;3.80;;
49296;SDS011;35163;48.878;18.040;2023-04-24T00:47:40;10.32;;;4.10;;
49296;SDS011;35163;48.878;18.040;2023-04-24T00:50:08;8.60;;;4.10;;
49296;SDS011;35163;48.878;18.040;2023-04-24T00:52:35;6.28;;;3.55;;
49296;SDS011;35163;48.878;18.040;2023-04-24T00:55:02;8.50;;;3.97;;
49296;SDS011;35163;48.878;18.040;2023-04-24T00:57:29;5.88;;;3.30;;
49296;SDS011;35163;48.878;18.040;2023-04-24T00:59:56;8.75;;;3.97;;
49296;SDS011;35163;48.878;18.040;2023-04-24T01:02:26;9.70;;;3.97;;
49296;SDS011;35163;48.878;18.040;2023-04-24T01:04:53;8.38;;;3.65;;
49296;SDS011;35163;48.878;18.040;2023-04-24T01:07:20;6.80;;;3.40;;
49296;SDS011;35163;48.878;18.040;2023-04-24T01:09:48;8.57;;;3.80;;
49296;SDS011;35163;48.878;18.040;2023-04-24T01:12:17;8.40;;;3.63;;
49296;SDS011;35163;48.878;18.040;2023-04-24T01:14:45;9.75;;;4.00;;
49296;SDS011;35163;48.878;18.040;2023-04-24T01:17:12;8.88;;;4.03;;
49296;SDS011;35163;48.878;18.040;2023-04-24T01:19:38;9.48;;;4.00;;
49296;SDS011;35163;48.878;18.040;2023-04-24T01:22:10;6.40;;;3.72;;
49296;SDS011;35163;48.878;18.040;2023-04-24T01:24:38;8.50;;;3.47;;
49296;SDS011;35163;48.878;18.040;2023-04-24T01:27:05;7.63;;;3.55;;
49296;SDS011;35163;48.878;18.040;2023-04-24T01:29:32;7.55;;;3.80;;
49296;SDS011;35163;48.878;18.040;2023-04-24T01:31:59;8.40;;;3.80;;
49296;SDS011;35163;48.878;18.040;2023-04-24T01:34:26;9.73;;;3.90;;
49296;SDS011;35163;48.878;18.040;2023-04-24T01:36:52;10.68;;;4.20;;
49296;SDS011;35163;48.878;18.040;2023-04-24T01:39:19;11.18;;;4.35;;
49296;SDS011;35163;48.878;18.040;2023-04-24T01:41:47;11.82;;;4.15;;
49296;SDS011;35163;48.878;18.040;2023-04-24T01:44:13;8.38;;;3.67;;
49296;SDS011;35163;48.878;18.040;2023-04-24T01:46:40;7.38;;;3.63;;
49296;SDS011;35163;48.878;18.040;2023-04-24T01:49:07;9.35;;;3.80;;
49296;SDS011;35163;48.878;18.040;2023-04-24T01:51:34;11.93;;;3.90;;
49296;SDS011;35163;48.878;18.040;2023-04-24T01:54:01;12.70;;;3.97;;
49296;SDS011;35163;48.878;18.040;2023-04-24T01:56:33;9.75;;;4.35;;
49296;SDS011;35163;48.878;18.040;2023-04-24T01:59:01;11.55;;;4.10;;
49296;SDS011;35163;48.878;18.040;2023-04-24T02:01:35;7.70;;;4.28;;
49296;SDS011;35163;48.878;18.040;2023-04-24T02:04:06;11.25;;;4.10;;
49296;SDS011;35163;48.878;18.040;2023-04-24T02:06:34;8.52;;;4.20;;
49296;SDS011;35163;48.878;18.040;2023-04-24T02:09:03;9.85;;;4.10;;
49296;SDS011;35163;48.878;18.040;2023-04-24T02:11:30;12.65;;;4.47;;
49296;SDS011;35163;48.878;18.040;2023-04-24T02:13:57;12.48;;;4.18;;
49296;SDS011;35163;48.878;18.040;2023-04-24T02:16:23;12.20;;;4.43;;
49296;SDS011;35163;48.878;18.040;2023-04-24T02:18:51;10.63;;;4.35;;
49296;SDS011;35163;48.878;18.040;2023-04-24T02:21:17;7.35;;;4.00;;
49296;SDS011;35163;48.878;18.040;2023-04-24T02:23:44;8.25;;;4.07;;
49296;SDS011;35163;48.878;18.040;2023-04-24T02:26:11;11.63;;;4.55;;
49296;SDS011;35163;48.878;18.040;2023-04-24T02:28:38;9.45;;;4.53;;
49296;SDS011;35163;48.878;18.040;2023-04-24T02:31:04;10.68;;;5.35;;
49296;SDS011;35163;48.878;18.040;2023-04-24T02:33:32;10.10;;;5.10;;
49296;SDS011;35163;48.878;18.040;2023-04-24T02:35:59;11.60;;;5.50;;
49296;SDS011;35163;48.878;18.040;2023-04-24T02:38:26;11.88;;;4.35;;
49296;SDS011;35163;48.878;18.040;2023-04-24T02:40:53;9.63;;;4.60;;
49296;SDS011;35163;48.878;18.040;2023-04-24T02:43:20;12.32;;;5.22;;
49296;SDS011;35163;48.878;18.040;2023-04-24T02:45:47;11.65;;;5.28;;
49296;SDS011;35163;48.878;18.040;2023-04-24T02:48:14;12.18;;;5.63;;
49296;SDS011;35163;48.878;18.040;2023-04-24T02:50:41;10.88;;;5.10;;
49296;SDS011;35163;48.878;18.040;2023-04-24T02:53:07;11.32;;;4.63;;
49296;SDS011;35163;48.878;18.040;2023-04-24T02:55:34;11.02;;;6.18;;
49296;SDS011;35163;48.878;18.040;2023-04-24T02:58:01;10.45;;;4.43;;
49296;SDS011;35163;48.878;18.040;2023-04-24T03:00:27;11.80;;;5.10;;
49296;SDS011;35163;48.878;18.040;2023-04-24T03:02:54;11.23;;;4.30;;
49296;SDS011;35163;48.878;18.040;2023-04-24T03:05:21;11.23;;;4.88;;
49296;SDS011;35163;48.878;18.040;2023-04-24T03:07:48;10.50;;;4.75;;
49296;SDS011;35163;48.878;18.040;2023-04-24T03:10:14;9.40;;;4.72;;
49296;SDS011;35163;48.878;18.040;2023-04-24T03:12:41;13.85;;;4.47;;
49296;SDS011;35163;48.878;18.040;2023-04-24T03:15:08;10.02;;;4.75;;
49296;SDS011;35163;48.878;18.040;2023-04-24T03:17:35;11.15;;;5.07;;
49296;SDS011;35163;48.878;18.040;2023-04-24T03:20:03;11.05;;;5.03;;
49296;SDS011;35163;48.878;18.040;2023-04-24T03:22:31;14.35;;;5.10;;
49296;SDS011;35163;48.878;18.040;2023-04-24T03:25:02;11.68;;;4.47;;
49296;SDS011;35163;48.878;18.040;2023-04-24T03:27:29;12.30;;;4.88;;
49296;SDS011;35163;48.878;18.040;2023-04-24T03:29:56;11.75;;;4.85;;
49296;SDS011;35163;48.878;18.040;2023-04-24T03:32:23;9.23;;;4.78;;
49296;SDS011;35163;48.878;18.040;2023-04-24T03:34:50;14.23;;;4.70;;
49296;SDS011;35163;48.878;18.040;2023-04-24T03:37:17;11.63;;;4.45;;
49296;SDS011;35163;48.878;18.040;2023-04-24T03:39:43;13.65;;;4.90;;
49296;SDS011;35163;48.878;18.040;2023-04-24T03:42:10;10.80;;;4.25;;
49296;SDS011;35163;48.878;18.040;2023-04-24T03:44:37;9.90;;;4.55;;
49296;SDS011;35163;48.878;18.040;2023-04-24T03:47:04;11.75;;;5.55;;
49296;SDS011;35163;48.878;18.040;2023-04-24T03:49:31;11.27;;;4.50;;
49296;SDS011;35163;48.878;18.040;2023-04-24T03:51:58;11.95;;;5.15;;
49296;SDS011;35163;48.878;18.040;2023-04-24T03:54:24;12.45;;;4.75;;
49296;SDS011;35163;48.878;18.040;2023-04-24T03:56:51;9.95;;;4.40;;
49296;SDS011;35163;48.878;18.040;2023-04-24T03:59:18;12.05;;;4.40;;
49296;SDS011;35163;48.878;18.040;2023-04-24T04:01:44;9.75;;;4.20;;
49296;SDS011;35163;48.878;18.040;2023-04-24T04:04:12;13.52;;;5.28;;
49296;SDS011;35163;48.878;18.040;2023-04-24T04:06:39;9.65;;;4.15;;
49296;SDS011;35163;48.878;18.040;2023-04-24T04:09:06;9.75;;;4.78;;
49296;SDS011;35163;48.878;18.040;2023-04-24T04:11:33;10.15;;;4.60;;
49296;SDS011;35163;48.878;18.040;2023-04-24T04:14:01;10.23;;;5.07;;
49296;SDS011;35163;48.878;18.040;2023-04-24T04:16:28;9.65;;;4.50;;
49296;SDS011;35163;48.878;18.040;2023-04-24T04:18:55;11.07;;;4.07;;
49296;SDS011;35163;48.878;18.040;2023-04-24T04:21:21;11.07;;;5.13;;
49296;SDS011;35163;48.878;18.040;2023-04-24T04:23:48;10.80;;;4.50;;
49296;SDS011;35163;48.878;18.040;2023-04-24T04:26:15;8.60;;;4.30;;
49296;SDS011;35163;48.878;18.040;2023-04-24T04:28:42;9.35;;;4.38;;
49296;SDS011;35163;48.878;18.040;2023-04-24T04:31:10;8.68;;;4.75;;
49296;SDS011;35163;48.878;18.040;2023-04-24T04:33:37;7.55;;;4.07;;
49296;SDS011;35163;48.878;18.040;2023-04-24T04:36:05;8.73;;;4.15;;
49296;SDS011;35163;48.878;18.040;2023-04-24T04:38:32;11.35;;;4.50;;
49296;SDS011;35163;48.878;18.040;2023-04-24T04:40:59;8.57;;;4.20;;
49296;SDS011;35163;48.878;18.040;2023-04-24T04:43:26;10.75;;;4.85;;
49296;SDS011;35163;48.878;18.040;2023-04-24T04:45:53;8.05;;;4.05;;
49296;SDS011;35163;48.878;18.040;2023-04-24T04:48:21;12.80;;;4.40;;
49296;SDS011;35163;48.878;18.040;2023-04-24T04:50:48;12.35;;;5.28;;
49296;SDS011;35163;48.878;18.040;2023-04-24T04:53:15;12.35;;;5.47;;
49296;SDS011;35163;48.878;18.040;2023-04-24T04:55:42;11.07;;;5.22;;
49296;SDS011;35163;48.878;18.040;2023-04-24T04:58:08;14.40;;;5.05;;
49296;SDS011;35163;48.878;18.040;2023-04-24T05:00:35;16.92;;;6.22;;
49296;SDS011;35163;48.878;18.040;2023-04-24T05:03:03;12.43;;;4.75;;
49296;SDS011;35163;48.878;18.040;2023-04-24T05:05:45;11.68;;;5.07;;
49296;SDS011;35163;48.878;18.040;2023-04-24T05:08:12;13.50;;;5.50;;
49296;SDS011;35163;48.878;18.040;2023-04-24T05:10:52;12.32;;;5.82;;
49296;SDS011;35163;48.878;18.040;2023-04-24T05:13:18;10.43;;;4.50;;
49296;SDS011;35163;48.878;18.040;2023-04-24T05:15:57;10.07;;;4.68;;
49296;SDS011;35163;48.878;18.040;2023-04-24T05:18:24;7.05;;;4.18;;
49296;SDS011;35163;48.878;18.040;2023-04-24T05:20:51;10.15;;;4.72;;
49296;SDS011;35163;48.878;18.040;2023-04-24T05:23:18;8.68;;;4.45;;
49296;SDS011;35163;48.878;18.040;2023-04-24T05:25:44;9.68;;;4.78;;
49296;SDS011;35163;48.878;18.040;2023-04-24T05:28:12;10.73;;;4.78;;
49296;SDS011;35163;48.878;18.040;2023-04-24T05:30:39;9.43;;;4.00;;
49296;SDS011;35163;48.878;18.040;2023-04-24T05:33:05;12.60;;;4.78;;
49296;SDS011;35163;48.878;18.040;2023-04-24T05:35:32;8.05;;;4.07;;
49296;SDS011;35163;48.878;18.040;2023-04-24T05:37:59;8.90;;;4.68;;
49296;SDS011;35163;48.878;18.040;2023-04-24T05:40:26;9.35;;;4.50;;
49296;SDS011;35163;48.878;18.040;2023-04-24T05:42:52;8.23;;;4.40;;
49296;SDS011;35163;48.878;18.040;2023-04-24T05:45:19;8.52;;;4.07;;
49296;SDS011;35163;48.878;18.040;2023-04-24T05:47:46;12.48;;;5.05;;
49296;SDS011;35163;48.878;18.040;2023-04-24T05:50:13;8.02;;;4.22;;
49296;SDS011;35163;48.878;18.040;2023-04-24T05:52:39;8.18;;;4.22;;
49296;SDS011;35163;48.878;18.040;2023-04-24T05:55:06;16.25;;;4.53;;
49296;SDS011;35163;48.878;18.040;2023-04-24T05:57:33;8.25;;;4.50;;
49296;SDS011;35163;48.878;18.040;2023-04-24T06:00:00;7.40;;;4.10;;
49296;SDS011;35163;48.878;18.040;2023-04-24T06:02:27;11.38;;;4.45;;
49296;SDS011;35163;48.878;18.040;2023-04-24T06:04:58;6.85;;;3.83;;
49296;SDS011;35163;48.878;18.040;2023-04-24T06:07:26;9.50;;;4.22;;
49296;SDS011;35163;48.878;18.040;2023-04-24T06:09:52;10.48;;;4.90;;
49296;SDS011;35163;48.878;18.040;2023-04-24T06:12:19;10.10;;;4.60;;
49296;SDS011;35163;48.878;18.040;2023-04-24T06:14:46;10.77;;;4.68;;
49296;SDS011;35163;48.878;18.040;2023-04-24T06:17:13;10.60;;;3.88;;
49296;SDS011;35163;48.878;18.040;2023-04-24T06:19:40;8.70;;;4.28;;
49296;SDS011;35163;48.878;18.040;2023-04-24T06:22:07;8.75;;;4.72;;
49296;SDS011;35163;48.878;18.040;2023-04-24T06:24:36;11.73;;;4.90;;
49296;SDS011;35163;48.878;18.040;2023-04-24T06:27:03;9.82;;;4.65;;
49296;SDS011;35163;48.878;18.040;2023-04-24T06:29:29;14.43;;;5.20;;
49296;SDS011;35163;48.878;18.040;2023-04-24T06:31:56;14.77;;;6.95;;
49296;SDS011;35163;48.878;18.040;2023-04-24T06:34:23;13.85;;;5.45;;
49296;SDS011;35163;48.878;18.040;2023-04-24T06:36:49;15.02;;;8.20;;
49296;SDS011;35163;48.878;18.040;2023-04-24T06:39:19;14.85;;;7.78;;
49296;SDS011;35163;48.878;18.040;2023-04-24T06:41:45;14.07;;;5.25;;
49296;SDS011;35163;48.878;18.040;2023-04-24T06:44:12;10.18;;;5.65;;
49296;SDS011;35163;48.878;18.040;2023-04-24T06:46:41;12.80;;;5.15;;
49296;SDS011;35163;48.878;18.040;2023-04-24T06:49:08;10.73;;;4.70;;
49296;SDS011;35163;48.878;18.040;2023-04-24T06:51:34;8.88;;;4.78;;
49296;SDS011;35163;48.878;18.040;2023-04-24T06:54:01;9.70;;;4.85;;
49296;SDS011;35163;48.878;18.040;2023-04-24T06:56:28;11.32;;;4.45;;
49296;SDS011;35163;48.878;18.040;2023-04-24T06:58:57;8.63;;;4.43;;
49296;SDS011;35163;48.878;18.040;2023-04-24T07:01:24;12.50;;;5.65;;
49296;SDS011;35163;48.878;18.040;2023-04-24T07:03:51;16.63;;;5.32;;
49296;SDS011;35163;48.878;18.040;2023-04-24T07:06:18;9.88;;;4.45;;
49296;SDS011;35163;48.878;18.040;2023-04-24T07:08:48;14.68;;;5.45;;
49296;SDS011;35163;48.878;18.040;2023-04-24T07:11:15;13.35;;;4.63;;
49296;SDS011;35163;48.878;18.040;2023-04-24T07:13:42;12.18;;;4.97;;
49296;SDS011;35163;48.878;18.040;2023-04-24T07:16:09;9.82;;;5.15;;
49296;SDS011;35163;48.878;18.040;2023-04-24T07:18:37;10.13;;;4.68;;
49296;SDS011;35163;48.878;18.040;2023-04-24T07:21:05;10.32;;;4.85;;
49296;SDS011;35163;48.878;18.040;2023-04-24T07:23:32;20.20;;;5.32;;
49296;SDS011;35163;48.878;18.040;2023-04-24T07:25:59;9.13;;;4.57;;
49296;SDS011;35163;48.878;18.040;2023-04-24T07:28:26;14.73;;;4.97;;
49296;SDS011;35163;48.878;18.040;2023-04-24T07:30:52;9.85;;;4.60;;
49296;SDS011;35163;48.878;18.040;2023-04-24T07:33:20;16.10;;;5.00;;
49296;SDS011;35163;48.878;18.040;2023-04-24T07:35:47;12.75;;;5.20;;
49296;SDS011;35163;48.878;18.040;2023-04-24T07:38:14;11.15;;;6.03;;
49296;SDS011;35163;48.878;18.040;2023-04-24T07:40:40;15.82;;;8.93;;
49296;SDS011;35163;48.878;18.040;2023-04-24T07:43:08;9.85;;;5.78;;
49296;SDS011;35163;48.878;18.040;2023-04-24T07:45:35;9.95;;;5.00;;
49296;SDS011;35163;48.878;18.040;2023-04-24T07:48:03;10.98;;;5.07;;
49296;SDS011;35163;48.878;18.040;2023-04-24T07:50:31;10.57;;;4.47;;
49296;SDS011;35163;48.878;18.040;2023-04-24T07:52:58;16.30;;;5.20;;
49296;SDS011;35163;48.878;18.040;2023-04-24T07:55:24;10.10;;;4.45;;
49296;SDS011;35163;48.878;18.040;2023-04-24T07:57:53;9.00;;;4.22;;
49296;SDS011;35163;48.878;18.040;2023-04-24T08:00:20;9.68;;;4.22;;
49296;SDS011;35163;48.878;18.040;2023-04-24T08:02:47;13.20;;;4.65;;
49296;SDS011;35163;48.878;18.040;2023-04-24T08:05:14;8.77;;;4.47;;
49296;SDS011;35163;48.878;18.040;2023-04-24T08:07:41;8.07;;;4.15;;
49296;SDS011;35163;48.878;18.040;2023-04-24T08:10:11;11.48;;;5.32;;
49296;SDS011;35163;48.878;18.040;2023-04-24T08:12:38;9.95;;;4.20;;
49296;SDS011;35163;48.878;18.040;2023-04-24T08:15:05;12.52;;;4.25;;
49296;SDS011;35163;48.878;18.040;2023-04-24T08:17:35;10.43;;;4.55;;
49296;SDS011;35163;48.878;18.040;2023-04-24T08:20:05;12.70;;;4.47;;
49296;SDS011;35163;48.878;18.040;2023-04-24T08:22:36;7.57;;;4.10;;
49296;SDS011;35163;48.878;18.040;2023-04-24T08:25:03;8.57;;;4.32;;
49296;SDS011;35163;48.878;18.040;2023-04-24T08:27:29;12.60;;;4.80;;
49296;SDS011;35163;48.878;18.040;2023-04-24T08:29:56;11.75;;;5.00;;
49296;SDS011;35163;48.878;18.040;2023-04-24T08:32:24;12.27;;;4.40;;
49296;SDS011;35163;48.878;18.040;2023-04-24T08:34:51;9.23;;;4.40;;
49296;SDS011;35163;48.878;18.040;2023-04-24T08:37:18;9.18;;;4.30;;
49296;SDS011;35163;48.878;18.040;2023-04-24T08:39:46;8.07;;;4.00;;
49296;SDS011;35163;48.878;18.040;2023-04-24T08:42:13;10.40;;;3.70;;
49296;SDS011;35163;48.878;18.040;2023-04-24T08:44:44;9.68;;;4.40;;
49296;SDS011;35163;48.878;18.040;2023-04-24T08:47:11;8.27;;;4.15;;
49296;SDS011;35163;48.878;18.040;2023-04-24T08:49:41;10.18;;;4.43;;
49296;SDS011;35163;48.878;18.040;2023-04-24T08:52:11;8.50;;;4.63;;
49296;SDS011;35163;48.878;18.040;2023-04-24T08:54:39;8.55;;;4.43;;
49296;SDS011;35163;48.878;18.040;2023-04-24T08:57:11;9.25;;;4.43;;
49296;SDS011;35163;48.878;18.040;2023-04-24T08:59:39;7.95;;;4.38;;
49296;SDS011;35163;48.878;18.040;2023-04-24T09:02:09;11.68;;;4.57;;
49296;SDS011;35163;48.878;18.040;2023-04-24T09:04:38;9.23;;;4.88;;
49296;SDS011;35163;48.878;18.040;2023-04-24T09:07:07;9.70;;;4.38;;
49296;SDS011;35163;48.878;18.040;2023-04-24T09:09:35;11.52;;;4.60;;
49296;SDS011;35163;48.878;18.040;2023-04-24T09:12:04;8.90;;;4.53;;
49296;SDS011;35163;48.878;18.040;2023-04-24T09:14:31;13.18;;;4.28;;
49296;SDS011;35163;48.878;18.040;2023-04-24T09:16:59;12.55;;;4.80;;
49296;SDS011;35163;48.878;18.040;2023-04-24T09:19:29;9.35;;;4.68;;
49296;SDS011;35163;48.878;18.040;2023-04-24T09:21:55;10.35;;;4.50;;
49296;SDS011;35163;48.878;18.040;2023-04-24T09:24:22;8.80;;;4.32;;
49296;SDS011;35163;48.878;18.040;2023-04-24T09:26:55;9.15;;;4.60;;
49296;SDS011;35163;48.878;18.040;2023-04-24T09:29:25;10.90;;;4.65;;
49296;SDS011;35163;48.878;18.040;2023-04-24T09:31:51;12.40;;;6.32;;
49296;SDS011;35163;48.878;18.040;2023-04-24T09:34:21;14.45;;;5.18;;
49296;SDS011;35163;48.878;18.040;2023-04-24T09:36:50;10.30;;;5.05;;
49296;SDS011;35163;48.878;18.040;2023-04-24T09:39:17;7.68;;;4.45;;
49296;SDS011;35163;48.878;18.040;2023-04-24T09:44:18;10.68;;;5.35;;
49296;SDS011;35163;48.878;18.040;2023-04-24T09:46:50;8.93;;;4.75;;
49296;SDS011;35163;48.878;18.040;2023-04-24T09:49:26;12.55;;;5.32;;
49296;SDS011;35163;48.878;18.040;2023-04-24T09:52:04;8.90;;;5.13;;
49296;SDS011;35163;48.878;18.040;2023-04-24T09:54:32;11.82;;;5.28;;
49296;SDS011;35163;48.878;18.040;2023-04-24T09:56:59;10.40;;;5.07;;
49296;SDS011;35163;48.878;18.040;2023-04-24T09:59:29;14.70;;;6.35;;
49296;SDS011;35163;48.878;18.040;2023-04-24T10:02:00;14.93;;;5.57;;
49296;SDS011;35163;48.878;18.040;2023-04-24T10:04:28;10.25;;;5.07;;
49296;SDS011;35163;48.878;18.040;2023-04-24T10:06:57;9.02;;;4.63;;
49296;SDS011;35163;48.878;18.040;2023-04-24T10:09:25;17.77;;;4.90;;
49296;SDS011;35163;48.878;18.040;2023-04-24T10:11:53;10.82;;;4.90;;
49296;SDS011;35163;48.878;18.040;2023-04-24T10:14:24;11.13;;;4.88;;
49296;SDS011;35163;48.878;18.040;2023-04-24T10:16:55;9.05;;;4.75;;
49296;SDS011;35163;48.878;18.040;2023-04-24T10:19:25;11.60;;;4.78;;
49296;SDS011;35163;48.878;18.040;2023-04-24T10:21:52;8.73;;;4.80;;
49296;SDS011;35163;48.878;18.040;2023-04-24T10:24:20;12.75;;;5.00;;
49296;SDS011;35163;48.878;18.040;2023-04-24T10:26:47;10.23;;;5.22;;
49296;SDS011;35163;48.878;18.040;2023-04-24T10:29:16;9.57;;;4.72;;
49296;SDS011;35163;48.878;18.040;2023-04-24T10:31:44;9.50;;;4.75;;
49296;SDS011;35163;48.878;18.040;2023-04-24T10:34:14;10.38;;;4.80;;
49296;SDS011;35163;48.878;18.040;2023-04-24T10:36:45;9.55;;;4.50;;
49296;SDS011;35163;48.878;18.040;2023-04-24T10:39:15;15.05;;;5.15;;
49296;SDS011;35163;48.878;18.040;2023-04-24T10:41:43;10.05;;;5.03;;
49296;SDS011;35163;48.878;18.040;2023-04-24T10:44:15;8.90;;;4.43;;
49296;SDS011;35163;48.878;18.040;2023-04-24T10:46:44;7.95;;;4.25;;
49296;SDS011;35163;48.878;18.040;2023-04-24T10:49:13;8.27;;;4.45;;
49296;SDS011;35163;48.878;18.040;2023-04-24T10:51:50;16.35;;;5.50;;
49296;SDS011;35163;48.878;18.040;2023-04-24T10:54:26;17.90;;;5.88;;
49296;SDS011;35163;48.878;18.040;2023-04-24T10:59:40;11.13;;;5.30;;
49296;SDS011;35163;48.878;18.040;2023-04-24T11:02:07;9.77;;;4.47;;
49296;SDS011;35163;48.878;18.040;2023-04-24T11:04:34;8.52;;;4.70;;
49296;SDS011;35163;48.878;18.040;2023-04-24T11:07:07;10.18;;;4.20;;
49296;SDS011;35163;48.878;18.040;2023-04-24T11:09:35;21.23;;;5.25;;
49296;SDS011;35163;48.878;18.040;2023-04-24T11:12:06;10.13;;;4.55;;
49296;SDS011;35163;48.878;18.040;2023-04-24T11:17:29;13.27;;;5.00;;
49296;SDS011;35163;48.878;18.040;2023-04-24T11:20:05;10.73;;;4.88;;
49296;SDS011;35163;48.878;18.040;2023-04-24T11:22:53;11.57;;;5.43;;
49296;SDS011;35163;48.878;18.040;2023-04-24T11:25:21;9.40;;;4.80;;
49296;SDS011;35163;48.878;18.040;2023-04-24T11:27:49;10.65;;;5.20;;
49296;SDS011;35163;48.878;18.040;2023-04-24T11:30:20;9.52;;;5.03;;
49296;SDS011;35163;48.878;18.040;2023-04-24T11:32:52;10.93;;;5.30;;
49296;SDS011;35163;48.878;18.040;2023-04-24T11:35:20;15.00;;;5.30;;
49296;SDS011;35163;48.878;18.040;2023-04-24T11:37:52;9.68;;;5.10;;
49296;SDS011;35163;48.878;18.040;2023-04-24T11:40:39;11.18;;;5.13;;
49296;SDS011;35163;48.878;18.040;2023-04-24T11:43:06;12.23;;;5.57;;
49296;SDS011;35163;48.878;18.040;2023-04-24T11:45:34;11.23;;;5.38;;
49296;SDS011;35163;48.878;18.040;2023-04-24T11:48:02;9.05;;;5.32;;
49296;SDS011;35163;48.878;18.040;2023-04-24T11:50:29;12.82;;;5.93;;
49296;SDS011;35163;48.878;18.040;2023-04-24T11:52:56;17.48;;;6.28;;
49296;SDS011;35163;48.878;18.040;2023-04-24T11:55:24;12.25;;;6.13;;
49296;SDS011;35163;48.878;18.040;2023-04-24T11:57:57;12.05;;;5.20;;
49296;SDS011;35163;48.878;18.040;2023-04-24T12:00:26;10.85;;;5.22;;
49296;SDS011;35163;48.878;18.040;2023-04-24T12:03:07;10.25;;;5.63;;
49296;SDS011;35163;48.878;18.040;2023-04-24T12:05:36;10.20;;;5.10;;
49296;SDS011;35163;48.878;18.040;2023-04-24T12:08:05;9.85;;;5.35;;
49296;SDS011;35163;48.878;18.040;2023-04-24T12:10:32;11.73;;;5.35;;
49296;SDS011;35163;48.878;18.040;2023-04-24T12:13:01;11.77;;;5.53;;
49296;SDS011;35163;48.878;18.040;2023-04-24T12:15:28;9.80;;;5.05;;
49296;SDS011;35163;48.878;18.040;2023-04-24T12:17:55;11.68;;;5.15;;
49296;SDS011;35163;48.878;18.040;2023-04-24T12:20:27;10.52;;;5.60;;
49296;SDS011;35163;48.878;18.040;2023-04-24T12:22:56;14.35;;;5.50;;
49296;SDS011;35163;48.878;18.040;2023-04-24T12:25:25;11.10;;;5.43;;
49296;SDS011;35163;48.878;18.040;2023-04-24T12:27:54;10.68;;;5.53;;
49296;SDS011;35163;48.878;18.040;2023-04-24T12:30:42;12.52;;;5.43;;
49296;SDS011;35163;48.878;18.040;2023-04-24T12:33:11;8.85;;;5.40;;
49296;SDS011;35163;48.878;18.040;2023-04-24T12:35:39;10.57;;;5.97;;
49296;SDS011;35163;48.878;18.040;2023-04-24T12:38:10;14.30;;;5.80;;
49296;SDS011;35163;48.878;18.040;2023-04-24T12:40:41;13.77;;;6.13;;
49296;SDS011;35163;48.878;18.040;2023-04-24T12:43:15;9.82;;;5.40;;
49296;SDS011;35163;48.878;18.040;2023-04-24T12:45:47;9.77;;;5.45;;
49296;SDS011;35163;48.878;18.040;2023-04-24T12:48:15;10.18;;;5.10;;
49296;SDS011;35163;48.878;18.040;2023-04-24T12:50:42;13.98;;;5.75;;
49296;SDS011;35163;48.878;18.040;2023-04-24T12:53:12;14.80;;;6.25;;
49296;SDS011;35163;48.878;18.040;2023-04-24T12:55:39;9.93;;;5.72;;
49296;SDS011;35163;48.878;18.040;2023-04-24T12:58:06;12.23;;;6.53;;
49296;SDS011;35163;48.878;18.040;2023-04-24T13:00:33;15.88;;;5.95;;
49296;SDS011;35163;48.878;18.040;2023-04-24T13:03:00;14.18;;;6.40;;
49296;SDS011;35163;48.878;18.040;2023-04-24T13:05:28;15.70;;;7.15;;
49296;SDS011;35163;48.878;18.040;2023-04-24T13:07:55;16.83;;;6.80;;
49296;SDS011;35163;48.878;18.040;2023-04-24T13:10:22;12.93;;;6.07;;
49296;SDS011;35163;48.878;18.040;2023-04-24T13:12:48;12.75;;;6.20;;
49296;SDS011;35163;48.878;18.040;2023-04-24T13:15:15;12.07;;;7.10;;
49296;SDS011;35163;48.878;18.040;2023-04-24T13:17:42;12.52;;;6.90;;
49296;SDS011;35163;48.878;18.040;2023-04-24T13:20:09;15.73;;;6.93;;
49296;SDS011;35163;48.878;18.040;2023-04-24T13:22:36;13.00;;;6.80;;
49296;SDS011;35163;48.878;18.040;2023-04-24T13:25:03;11.48;;;6.32;;
49296;SDS011;35163;48.878;18.040;2023-04-24T13:27:32;16.02;;;6.57;;
49296;SDS011;35163;48.878;18.040;2023-04-24T13:29:59;14.13;;;6.93;;
49296;SDS011;35163;48.878;18.040;2023-04-24T13:32:25;14.18;;;8.15;;
49296;SDS011;35163;48.878;18.040;2023-04-24T13:34:55;17.65;;;7.22;;
49296;SDS011;35163;48.878;18.040;2023-04-24T13:37:22;15.88;;;7.05;;
49296;SDS011;35163;48.878;18.040;2023-04-24T13:39:49;12.65;;;7.35;;
49296;SDS011;35163;48.878;18.040;2023-04-24T13:42:17;14.43;;;6.97;;
49296;SDS011;35163;48.878;18.040;2023-04-24T13:44:45;14.80;;;8.52;;
49296;SDS011;35163;48.878;18.040;2023-04-24T13:47:14;17.40;;;9.73;;
49296;SDS011;35163;48.878;18.040;2023-04-24T13:49:41;17.88;;;9.35;;
49296;SDS011;35163;48.878;18.040;2023-04-24T13:52:08;15.73;;;10.35;;
49296;SDS011;35163;48.878;18.040;2023-04-24T13:54:36;18.77;;;11.50;;
49296;SDS011;35163;48.878;18.040;2023-04-24T13:57:03;17.75;;;11.90;;
49296;SDS011;35163;48.878;18.040;2023-04-24T13:59:30;19.00;;;12.43;;
49296;SDS011;35163;48.878;18.040;2023-04-24T14:01:56;21.38;;;12.70;;
49296;SDS011;35163;48.878;18.040;2023-04-24T14:04:23;19.73;;;12.88;;
49296;SDS011;35163;48.878;18.040;2023-04-24T14:06:51;21.13;;;13.95;;
49296;SDS011;35163;48.878;18.040;2023-04-24T14:09:17;30.15;;;19.08;;
49296;SDS011;35163;48.878;18.040;2023-04-24T14:11:44;23.35;;;14.93;;
49296;SDS011;35163;48.878;18.040;2023-04-24T14:14:14;18.92;;;12.95;;
49296;SDS011;35163;48.878;18.040;2023-04-24T14:16:41;18.35;;;12.77;;
49296;SDS011;35163;48.878;18.040;2023-04-24T14:19:07;17.58;;;12.45;;
49296;SDS011;35163;48.878;18.040;2023-04-24T14:21:34;18.52;;;12.50;;
49296;SDS011;35163;48.878;18.040;2023-04-24T14:24:03;22.17;;;13.15;;
49296;SDS011;35163;48.878;18.040;2023-04-24T14:26:33;19.38;;;12.73;;
49296;SDS011;35163;48.878;18.040;2023-04-24T14:29:01;20.63;;;13.02;;
49296;SDS011;35163;48.878;18.040;2023-04-24T14:31:30;18.90;;;12.55;;
49296;SDS011;35163;48.878;18.040;2023-04-24T14:33:57;16.80;;;11.80;;
49296;SDS011;35163;48.878;18.040;2023-04-24T14:36:24;20.75;;;12.48;;
49296;SDS011;35163;48.878;18.040;2023-04-24T14:38:50;19.30;;;11.00;;